This is the latest recevied weather packets stored in our database for station/object AD7ZD. If no packets are shown the sender has not sent any weather packets the latest 10 day(s).
| Time | Temp. | Humidity | Pressure | Rain* | Wind** | Luminosity | Snow |
|---|---|---|---|---|---|---|---|
| 1777711913 | 8.89° C | 33% | 1013.3 hPa | 0 mm | - | 0 W/m² | - |
| 1777711611 | 9.44° C | 38% | 1013 hPa | 0 mm | - | 0 W/m² | - |
| 1777711305 | 9.44° C | 37% | 1013.3 hPa | 0 mm | - | 0 W/m² | - |
| 1777711002 | 10° C | 35% | 1013.3 hPa | 0 mm | - | 0 W/m² | - |
| 1777710700 | 9.44° C | 33% | 1013.3 hPa | 0 mm | - | 0 W/m² | - |
| 1777710397 | 10° C | 31% | 1013.1 hPa | 0 mm | - | 0 W/m² | - |
| 1777710093 | 12.22° C | 21% | 1013.3 hPa | 0 mm | - | 0 W/m² | - |
| 1777709791 | 13.33° C | 20% | 1013.3 hPa | 0 mm | - | 0 W/m² | - |
| 1777709488 | 13.89° C | 20% | 1012.9 hPa | 0 mm | - | 0 W/m² | - |
| 1777709186 | 13.33° C | 20% | 1013.1 hPa | 0 mm | - | 0 W/m² | - |
| 1777708883 | 13.89° C | 20% | 1013.1 hPa | 0 mm | - | 0 W/m² | - |
| 1777708580 | 14.44° C | 19% | 1013.3 hPa | 0 mm | - | 0 W/m² | - |
| 1777708278 | 15° C | 19% | 1013.3 hPa | 0 mm | - | 0 W/m² | - |
| 1777707975 | 14.44° C | 19% | 1013.4 hPa | 0 mm | - | 0 W/m² | - |
| 1777707672 | 15° C | 19% | 1013.3 hPa | 0 mm | - | 0 W/m² | - |
| 1777707369 | 15.56° C | 18% | 1013.5 hPa | 0 mm | - | 0 W/m² | - |
| 1777707065 | 15° C | 19% | 1013.5 hPa | 0 mm | - | 0 W/m² | - |
| 1777706762 | 14.44° C | 20% | 1013.5 hPa | 0 mm | - | 0 W/m² | - |
| 1777706461 | 15.56° C | 19% | 1013.6 hPa | 0 mm | - | 0 W/m² | - |
| 1777706157 | 15° C | 19% | 1013.6 hPa | 0 mm | - | 0 W/m² | - |
| 1777705856 | 14.44° C | 19% | 1013.6 hPa | 0 mm | - | 0 W/m² | - |
| 1777705554 | 13.33° C | 21% | 1013.6 hPa | 0 mm | - | 0 W/m² | - |
| 1777705251 | 12.78° C | 22% | 1013.5 hPa | 0 mm | - | 0 W/m² | - |
| 1777704950 | 12.78° C | 22% | 1013.4 hPa | 0 mm | - | 0 W/m² | - |
| 1777704647 | 13.33° C | 22% | 1013.4 hPa | 0 mm | - | 0 W/m² | - |
* Rain latest hour (hover to see other rain measurements)
** Current wind speed in m/s (hover to see current wind gust speed)